Time;durP1;ratioP1;P1;durP2;ratioP2;P2;SDS_P1;SDS_P2;PMS_P1;PMS_P2;Temp;Humidity;BMP_temperature;BMP_pressure;BME280_temperature;BME280_humidity;BME280_pressure;Samples;Min_cycle;Max_cycle;Signal;HPM_P1;HPM_P2
2021/04/11 04:11:02;;;;;;;0.63;0.63;;;11.90;99.90;;;;;;5690319;23;20280;-79
2021/04/11 04:13:48;;;;;;;0.60;0.60;;;11.80;99.90;;;;;;4961576;29;20209;-79
2021/04/11 04:16:19;;;;;;;0.70;0.70;;;11.70;99.90;;;;;;4962397;29;20601;-79
2021/04/11 04:19:01;;;;;;;0.80;0.80;;;11.70;99.90;;;;;;4963223;29;20214;-79
2021/04/11 04:21:57;;;;;;;0.60;0.60;;;11.60;99.90;;;;;;4950790;29;20284;-79
2021/04/11 04:24:37;;;;;;;0.88;0.88;;;11.60;99.90;;;;;;4944851;29;20206;-80
2021/04/11 04:27:29;;;;;;;0.60;0.60;;;11.50;99.90;;;;;;4943539;29;20218;-78
2021/04/11 04:30:14;;;;;;;0.70;0.70;;;11.40;99.90;;;;;;4942596;29;20669;-78
2021/04/11 04:33:08;;;;;;;0.50;0.50;;;11.40;99.90;;;;;;4933590;29;20213;-76
2021/04/11 04:35:42;;;;;;;0.80;0.80;;;11.40;99.90;;;;;;4936023;29;20194;-76
2021/04/11 04:38:17;;;;;;;0.70;0.70;;;11.40;99.90;;;;;;4937570;29;20189;-79
2021/04/11 04:40:53;;;;;;;0.65;0.65;;;11.40;99.90;;;;;;4939217;29;20240;-78
2021/04/11 04:43:28;;;;;;;0.60;0.60;;;11.40;99.90;;;;;;4940298;29;20218;-79
2021/04/11 04:46:08;;;;;;;0.70;0.70;;;11.40;99.90;;;;;;4940415;29;20269;-78
2021/04/11 04:48:38;;;;;;;0.70;0.70;;;11.40;99.90;;;;;;4941890;29;20213;-77
2021/04/11 04:51:11;;;;;;;0.60;0.60;;;11.50;99.90;;;;;;4940330;29;20747;-79
2021/04/11 04:53:43;;;;;;;0.60;0.60;;;11.50;99.90;;;;;;4941479;29;20190;-79
2021/04/11 04:56:17;;;;;;;0.70;0.70;;;11.60;99.90;;;;;;4939335;29;20191;-78
2021/04/11 04:58:53;;;;;;;0.70;0.70;;;11.60;99.90;;;;;;4941934;29;20560;-80
2021/04/11 05:01:24;;;;;;;0.70;0.70;;;11.60;99.90;;;;;;4941001;29;20238;-78
2021/04/11 05:03:56;;;;;;;0.65;0.65;;;11.50;99.90;;;;;;4940747;29;20206;-79
2021/04/11 05:06:27;;;;;;;0.80;0.80;;;11.50;99.90;;;;;;4940064;29;20205;-79
2021/04/11 05:09:01;;;;;;;0.70;0.70;;;11.50;99.90;;;;;;4940104;29;20277;-80
2021/04/11 05:11:34;;;;;;;0.52;0.52;;;11.50;99.90;;;;;;4939728;29;20266;-80
2021/04/11 05:14:07;;;;;;;0.70;0.70;;;11.50;99.90;;;;;;4938775;29;20190;-77
2021/04/11 05:16:38;;;;;;;0.75;0.75;;;11.60;99.90;;;;;;4939142;29;20194;-77
2021/04/11 05:19:08;;;;;;;0.70;0.70;;;11.60;99.90;;;;;;4937517;29;20202;-78
2021/04/11 05:21:40;;;;;;;0.70;0.70;;;11.70;99.90;;;;;;4940323;29;20230;-79
2021/04/11 05:24:11;;;;;;;0.63;0.63;;;11.80;99.90;;;;;;4938581;29;20201;-79
2021/04/11 05:26:43;;;;;;;0.70;0.70;;;11.80;99.90;;;;;;4940872;29;20245;-79
2021/04/11 05:29:18;;;;;;;0.70;0.70;;;11.70;99.90;;;;;;4941120;29;20207;-78
2021/04/11 05:31:45;;;;;;;0.60;0.60;;;11.80;99.90;;;;;;4938759;29;20232;-80
2021/04/11 05:34:15;;;;;;;0.70;0.70;;;11.80;99.90;;;;;;4938970;29;20774;-78
2021/04/11 05:36:55;;;;;;;0.70;0.70;;;11.80;99.90;;;;;;4938435;29;20206;-76
2021/04/11 05:39:31;;;;;;;0.60;0.60;;;11.80;99.90;;;;;;4936918;29;20190;-76
2021/04/11 05:42:04;;;;;;;0.70;0.70;;;11.80;99.90;;;;;;4936184;29;20221;-77
2021/04/11 05:44:38;;;;;;;0.70;0.70;;;11.60;99.90;;;;;;4936533;29;20664;-79
2021/04/11 05:47:15;;;;;;;0.60;0.60;;;11.80;99.90;;;;;;4936799;29;20221;-79
2021/04/11 05:49:48;;;;;;;0.60;0.60;;;11.90;99.90;;;;;;4936536;29;20197;-78
2021/04/11 05:52:19;;;;;;;0.70;0.70;;;11.90;99.90;;;;;;4936407;29;20229;-79
2021/04/11 05:54:49;;;;;;;0.60;0.60;;;12.00;99.90;;;;;;4938480;29;20237;-80
2021/04/11 05:57:20;;;;;;;0.70;0.70;;;12.00;99.90;;;;;;4938090;29;20201;-79
2021/04/11 05:59:52;;;;;;;0.70;0.70;;;12.10;99.90;;;;;;4936434;29;20229;-81
2021/04/11 06:02:26;;;;;;;0.70;0.70;;;12.20;99.90;;;;;;4937490;29;20253;-81
2021/04/11 06:05:00;;;;;;;0.70;0.70;;;12.20;99.80;;;;;;4939186;29;20285;-80
2021/04/11 06:07:33;;;;;;;0.50;0.50;;;12.30;99.60;;;;;;4937447;29;20249;-79
2021/04/11 06:10:04;;;;;;;0.50;0.50;;;12.30;99.40;;;;;;4935528;29;20208;-82
2021/04/11 06:12:37;;;;;;;0.70;0.70;;;12.30;98.90;;;;;;4936493;29;20299;-79
2021/04/11 06:15:11;;;;;;;0.60;0.60;;;12.40;98.90;;;;;;4935676;29;20773;-80
2021/04/11 06:17:41;;;;;;;0.50;0.50;;;12.50;98.40;;;;;;4937350;29;20231;-79
2021/04/11 06:20:09;;;;;;;0.65;0.65;;;12.60;98.70;;;;;;4937301;29;20210;-77
2021/04/11 06:22:42;;;;;;;0.60;0.60;;;12.60;97.80;;;;;;4938194;29;20261;-77
2021/04/11 06:25:14;;;;;;;0.70;0.70;;;12.70;97.60;;;;;;4936578;29;20241;-77
2021/04/11 06:27:50;;;;;;;0.80;0.80;;;12.80;99.90;;;;;;4936879;29;20281;-78
2021/04/11 06:30:23;;;;;;;0.63;0.63;;;13.10;96.80;;;;;;4936199;29;20213;-78
2021/04/11 06:32:54;;;;;;;0.60;0.60;;;13.20;95.50;;;;;;4937464;29;20206;-78
2021/04/11 06:35:26;;;;;;;0.70;0.70;;;13.40;95.20;;;;;;4936463;29;20213;-81
2021/04/11 06:37:56;;;;;;;0.60;0.60;;;13.60;94.90;;;;;;4935938;29;20205;-82
2021/04/11 06:40:42;;;;;;;0.60;0.60;;;14.10;99.90;;;;;;4936777;29;20257;-79
2021/04/11 06:43:25;;;;;;;0.60;0.60;;;14.10;93.40;;;;;;4935985;29;20198;-81
2021/04/11 06:46:00;;;;;;;0.60;0.60;;;14.30;98.40;;;;;;4937057;29;20632;-82
2021/04/11 06:48:50;;;;;;;0.50;0.50;;;14.40;92.00;;;;;;4935971;29;20217;-77
2021/04/11 06:51:55;;;;;;;0.50;0.50;;;14.40;91.60;;;;;;4930152;29;20604;-81
2021/04/11 06:54:58;;;;;;;0.50;0.50;;;14.50;91.10;;;;;;4933766;29;20209;-78
2021/04/11 06:57:52;;;;;;;0.50;0.50;;;14.60;90.40;;;;;;4934116;29;20227;-79
2021/04/11 07:00:32;;;;;;;0.60;0.60;;;14.60;97.00;;;;;;4936858;29;20257;-78
2021/04/11 07:03:41;;;;;;;0.60;0.60;;;14.60;90.50;;;;;;4939315;29;20230;-80
2021/04/11 07:06:49;;;;;;;0.60;0.60;;;14.70;90.40;;;;;;4942249;29;20629;-80
2021/04/11 07:09:43;;;;;;;0.60;0.60;;;14.80;89.40;;;;;;4941147;29;20233;-79
2021/04/11 07:12:41;;;;;;;0.50;0.50;;;15.00;89.50;;;;;;4937809;29;20237;-79
2021/04/11 07:15:23;;;;;;;0.60;0.60;;;15.10;88.10;;;;;;4938108;29;20206;-79
2021/04/11 07:18:25;;;;;;;0.40;0.40;;;15.20;86.50;;;;;;4938690;29;20206;-81
2021/04/11 07:21:19;;;;;;;0.50;0.50;;;15.40;87.70;;;;;;4939113;29;20279;-78
2021/04/11 07:24:23;;;;;;;0.60;0.60;;;15.80;96.60;;;;;;4938836;29;20266;-79
2021/04/11 07:26:57;;;;;;;0.52;0.52;;;15.80;84.20;;;;;;4939918;29;20508;-78
2021/04/11 07:29:53;;;;;;;0.50;0.50;;;15.70;84.30;;;;;;4938202;29;20226;-80
2021/04/11 07:32:47;;;;;;;0.50;0.50;;;15.90;83.90;;;;;;4936926;29;20226;-79
2021/04/11 07:35:21;;;;;;;0.57;0.57;;;16.00;82.60;;;;;;4937498;29;20233;-81
2021/04/11 07:38:21;;;;;;;0.40;0.40;;;16.10;82.30;;;;;;4938577;29;20213;-78
2021/04/11 07:41:14;;;;;;;0.50;0.50;;;16.30;81.80;;;;;;4938288;29;20293;-82
2021/04/11 07:43:59;;;;;;;0.50;0.50;;;16.50;81.80;;;;;;4937896;29;20206;-79
2021/04/11 07:46:45;;;;;;;0.50;0.50;;;16.70;80.60;;;;;;4939506;29;20202;-79
2021/04/11 07:49:50;;;;;;;0.50;0.50;;;16.60;79.90;;;;;;4939120;29;20268;-79
2021/04/11 07:52:41;;;;;;;0.50;0.50;;;16.70;78.70;;;;;;4939461;29;20225;-79
2021/04/11 07:55:27;;;;;;;0.50;0.50;;;16.50;79.40;;;;;;4938866;29;20624;-79
2021/04/11 07:58:28;;;;;;;0.40;0.40;;;16.50;80.00;;;;;;4938148;29;20658;-78
2021/04/11 08:01:08;;;;;;;0.50;0.50;;;16.40;80.50;;;;;;4937669;29;20637;-78
2021/04/11 08:04:08;;;;;;;0.40;0.40;;;16.40;77.90;;;;;;4938106;29;20214;-78
2021/04/11 08:06:56;;;;;;;0.40;0.40;;;16.70;76.90;;;;;;4906041;29;20210;-79
2021/04/11 08:09:36;;;;;;;0.50;0.50;;;16.80;76.60;;;;;;4936716;29;20226;-78
2021/04/11 08:12:42;;;;;;;0.50;0.50;;;16.70;75.60;;;;;;4918374;29;537456;-78
2021/04/11 08:15:19;;;;;;;0.30;0.30;;;16.90;76.30;;;;;;4942146;29;20614;-78
2021/04/11 08:18:01;;;;;;;0.30;0.30;;;17.10;74.80;;;;;;4939154;29;20214;-79
2021/04/11 08:21:10;;;;;;;0.38;0.38;;;17.40;92.50;;;;;;4939416;29;20205;-80
2021/04/11 08:24:06;;;;;;;0.38;0.38;;;17.50;75.10;;;;;;4939076;29;20265;-79
2021/04/11 08:27:16;;;;;;;0.38;0.38;;;17.40;72.00;;;;;;4938486;29;20667;-76
2021/04/11 08:30:02;;;;;;;0.50;0.50;;;17.30;72.60;;;;;;4918570;29;20234;-79
2021/04/11 08:32:56;;;;;;;0.40;0.40;;;17.40;71.80;;;;;;4938537;29;20312;-79
2021/04/11 08:36:18;;;;;;;0.40;0.40;;;17.30;73.20;;;;;;4939128;29;20210;-79
2021/04/11 08:39:18;;;;;;;0.40;0.40;;;17.20;72.00;;;;;;4931998;29;20729;-78
2021/04/11 08:42:05;;;;;;;0.50;0.50;;;17.10;72.60;;;;;;4939760;29;20233;-78
2021/04/11 08:44:54;;;;;;;0.40;0.40;;;17.10;73.00;;;;;;4919508;29;20199;-78
2021/04/11 08:47:31;;;;;;;0.40;0.40;;;17.10;74.00;;;;;;4921802;29;20210;-78
2021/04/11 08:50:00;;;;;;;0.40;0.40;;;17.20;74.30;;;;;;4920392;29;20735;-79
2021/04/11 08:52:42;;;;;;;0.30;0.30;;;17.40;70.50;;;;;;4920937;29;20231;-79
2021/04/11 08:55:18;;;;;;;0.40;0.40;;;17.50;70.70;;;;;;4920839;29;20206;-79
2021/04/11 08:58:05;;;;;;;0.30;0.30;;;17.70;70.60;;;;;;4918921;29;20238;-79
2021/04/11 09:00:38;;;;;;;0.50;0.50;;;17.80;69.70;;;;;;4917543;29;20692;-78
2021/04/11 09:03:17;;;;;;;0.50;0.50;;;17.70;69.70;;;;;;4918176;29;20217;-76
2021/04/11 09:05:55;;;;;;;0.40;0.40;;;17.40;70.70;;;;;;4917996;29;20548;-77
2021/04/11 09:08:30;;;;;;;0.40;0.40;;;17.40;71.70;;;;;;4917340;29;20851;-76
2021/04/11 09:11:18;;;;;;;0.40;0.40;;;17.30;72.70;;;;;;4918092;29;20245;-78
2021/04/11 09:14:14;;;;;;;0.40;0.40;;;17.30;72.60;;;;;;4918995;29;20214;-77
2021/04/11 09:16:53;;;;;;;0.40;0.40;;;17.30;71.90;;;;;;4918277;29;20680;-81
2021/04/11 09:19:26;;;;;;;0.40;0.40;;;17.30;71.70;;;;;;4917814;29;20198;-77
2021/04/11 09:22:10;;;;;;;0.40;0.40;;;17.40;72.20;;;;;;4922725;29;20635;-78
2021/04/11 09:24:42;;;;;;;0.40;0.40;;;17.40;71.60;;;;;;4937104;29;20209;-79
2021/04/11 09:27:52;;;;;;;0.40;0.40;;;17.50;71.60;;;;;;4938027;29;20210;-80
2021/04/11 09:30:37;;;;;;;0.40;0.40;;;17.70;87.40;;;;;;4937177;29;20258;-81
2021/04/11 09:33:26;;;;;;;0.30;0.30;;;17.60;71.50;;;;;;4939264;29;20202;-79
2021/04/11 09:36:06;;;;;;;0.40;0.40;;;17.60;70.60;;;;;;4937566;29;20223;-78
2021/04/11 09:39:11;;;;;;;0.40;0.40;;;17.60;71.10;;;;;;4941598;29;20241;-79
2021/04/11 09:42:13;;;;;;;0.30;0.30;;;17.70;72.80;;;;;;4940186;29;20226;-79
2021/04/11 09:45:03;;;;;;;0.50;0.50;;;17.70;72.90;;;;;;4937815;29;20209;-78
2021/04/11 09:47:51;;;;;;;0.50;0.50;;;17.70;72.70;;;;;;4940009;29;20205;-79
2021/04/11 09:50:37;;;;;;;0.40;0.40;;;17.60;87.10;;;;;;4928834;29;20205;-79
2021/04/11 09:53:34;;;;;;;0.40;0.40;;;17.60;72.70;;;;;;4938722;29;20206;-74
2021/04/11 09:56:19;;;;;;;0.40;0.40;;;17.60;71.30;;;;;;4935604;29;20269;-77
2021/04/11 09:58:57;;;;;;;0.30;0.30;;;17.80;71.70;;;;;;4935530;29;20205;-77
2021/04/11 10:01:32;;;;;;;0.38;0.38;;;17.80;70.80;;;;;;4935278;29;20226;-77
2021/04/11 10:04:10;;;;;;;0.30;0.30;;;17.90;70.80;;;;;;4937562;29;20610;-77
2021/04/11 10:06:57;;;;;;;0.40;0.40;;;17.80;70.20;;;;;;4935924;29;20206;-77
2021/04/11 10:09:45;;;;;;;0.30;0.30;;;17.80;70.50;;;;;;4939481;29;20284;-78
2021/04/11 10:12:42;;;;;;;0.40;0.40;;;17.90;69.30;;;;;;4937262;29;20248;-79
2021/04/11 10:15:17;;;;;;;0.50;0.50;;;17.90;68.60;;;;;;4935328;29;20595;-77
2021/04/11 10:18:19;;;;;;;0.30;0.30;;;17.90;69.30;;;;;;4936491;29;20268;-77
2021/04/11 10:20:55;;;;;;;0.30;0.30;;;17.90;69.60;;;;;;4936592;29;20296;-77
2021/04/11 10:23:33;;;;;;;0.50;0.50;;;17.80;69.00;;;;;;4936368;29;20224;-78
2021/04/11 10:26:05;;;;;;;0.30;0.30;;;17.70;70.50;;;;;;4935973;29;20210;-77
2021/04/11 10:28:39;;;;;;;0.40;0.40;;;17.80;69.70;;;;;;4926160;29;20317;-76
2021/04/11 10:31:16;;;;;;;0.32;0.32;;;17.90;70.90;;;;;;4930433;29;20252;-76
2021/04/11 10:33:49;;;;;;;0.35;0.35;;;18.10;70.00;;;;;;4934117;29;20201;-77
2021/04/11 10:36:22;;;;;;;0.30;0.30;;;18.20;69.50;;;;;;4934600;29;20230;-77
2021/04/11 10:38:53;;;;;;;0.50;0.50;;;18.20;71.20;;;;;;4934998;29;20201;-73
2021/04/11 10:41:42;;;;;;;0.40;0.40;;;18.30;70.20;;;;;;4934695;29;20230;-74
2021/04/11 10:44:30;;;;;;;0.32;0.32;;;18.40;71.10;;;;;;4929956;29;20289;-75
2021/04/11 10:47:21;;;;;;;0.30;0.30;;;18.40;70.10;;;;;;4934903;29;20206;-76
2021/04/11 10:49:55;;;;;;;0.30;0.30;;;18.50;70.30;;;;;;4931731;29;20300;-73
2021/04/11 10:52:48;;;;;;;0.30;0.30;;;18.60;70.60;;;;;;4933686;29;20231;-73
2021/04/11 10:55:50;;;;;;;0.30;0.30;;;18.70;70.70;;;;;;4932802;29;20213;-74
2021/04/11 10:58:49;;;;;;;0.30;0.30;;;18.80;68.30;;;;;;4932870;29;20678;-74
2021/04/11 11:01:38;;;;;;;0.30;0.30;;;18.80;68.10;;;;;;4932499;29;20221;-74
2021/04/11 11:04:46;;;;;;;0.30;0.30;;;18.80;66.60;;;;;;4931268;29;20201;-73
2021/04/11 11:07:35;;;;;;;0.40;0.40;;;18.80;67.10;;;;;;4932887;29;20210;-74
2021/04/11 11:10:11;;;;;;;0.30;0.30;;;18.90;67.60;;;;;;4931243;29;20711;-74
2021/04/11 11:12:55;;;;;;;0.30;0.30;;;19.00;67.50;;;;;;4933532;29;20257;-74
2021/04/11 11:15:42;;;;;;;0.30;0.30;;;19.10;67.30;;;;;;4930889;29;20202;-73
2021/04/11 11:18:29;;;;;;;0.40;0.40;;;19.30;66.70;;;;;;4931917;29;20258;-74
2021/04/11 11:21:09;;;;;;;0.40;0.40;;;19.30;66.30;;;;;;4931240;29;20309;-76
2021/04/11 11:23:59;;;;;;;0.30;0.30;;;19.40;66.70;;;;;;4931964;29;20198;-76
2021/04/11 11:26:46;;;;;;;0.30;0.30;;;19.50;66.00;;;;;;4931247;29;20206;-76
2021/04/11 11:29:30;;;;;;;0.30;0.30;;;19.50;66.10;;;;;;4931706;29;20233;-76
2021/04/11 11:32:03;;;;;;;0.30;0.30;;;19.50;66.10;;;;;;4932477;29;20696;-75
2021/04/11 11:34:40;;;;;;;0.30;0.30;;;19.50;65.90;;;;;;4931460;29;20277;-76
2021/04/11 11:37:19;;;;;;;0.40;0.40;;;19.50;64.90;;;;;;4933679;29;20202;-76
2021/04/11 11:39:51;;;;;;;0.30;0.30;;;19.50;65.00;;;;;;4933342;29;20194;-76
2021/04/11 11:42:28;;;;;;;0.30;0.30;;;19.60;65.30;;;;;;4933537;29;20616;-76
2021/04/11 11:45:07;;;;;;;0.30;0.30;;;19.60;64.70;;;;;;4934467;29;20245;-76
2021/04/11 11:47:42;;;;;;;0.43;0.43;;;19.60;65.10;;;;;;4935415;29;20629;-76
2021/04/11 11:50:17;;;;;;;0.20;0.20;;;19.80;66.20;;;;;;4934422;29;20217;-76
2021/04/11 11:52:49;;;;;;;0.30;0.30;;;19.90;66.80;;;;;;4936578;29;20247;-75
2021/04/11 11:55:23;;;;;;;0.30;0.30;;;20.10;65.40;;;;;;4936818;29;20257;-76
2021/04/11 11:57:57;;;;;;;0.28;0.28;;;20.30;70.60;;;;;;4937323;29;20209;-76
2021/04/11 12:00:30;;;;;;;0.30;0.30;;;20.60;64.50;;;;;;4934955;29;20206;-76
2021/04/11 12:03:11;;;;;;;0.30;0.30;;;20.70;66.20;;;;;;4936645;29;20194;-76
2021/04/11 12:05:45;;;;;;;0.30;0.30;;;20.70;63.10;;;;;;4933893;29;20202;-77
2021/04/11 12:08:22;;;;;;;0.30;0.30;;;20.70;62.50;;;;;;4936615;29;20210;-75
2021/04/11 12:10:57;;;;;;;0.30;0.30;;;20.70;62.40;;;;;;4935208;29;20237;-75
2021/04/11 12:13:34;;;;;;;0.20;0.20;;;20.70;62.50;;;;;;4936448;29;20202;-75
2021/04/11 12:16:07;;;;;;;0.30;0.30;;;20.70;62.90;;;;;;4936668;29;20284;-76
2021/04/11 12:18:41;;;;;;;0.30;0.30;;;20.80;62.70;;;;;;4936849;29;20237;-76
2021/04/11 12:21:15;;;;;;;0.40;0.40;;;20.90;81.60;;;;;;4933830;29;20277;-76
2021/04/11 12:23:45;;;;;;;0.30;0.30;;;20.90;76.40;;;;;;4937711;29;20209;-77
2021/04/11 12:26:15;;;;;;;0.20;0.20;;;20.70;71.90;;;;;;4937089;29;20214;-77
2021/04/11 12:28:44;;;;;;;0.20;0.20;;;20.80;73.00;;;;;;4934831;29;20256;-76
2021/04/11 12:31:28;;;;;;;0.30;0.30;;;20.80;71.80;;;;;;4936426;29;20221;-75
2021/04/11 12:34:03;;;;;;;0.30;0.30;;;20.90;63.80;;;;;;4935336;29;20261;-76
2021/04/11 12:36:40;;;;;;;0.30;0.30;;;20.50;57.80;;;;;;4935763;29;20582;-76
2021/04/11 12:39:13;;;;;;;0.30;0.30;;;20.40;58.90;;;;;;4935533;29;20209;-77
2021/04/11 12:41:44;;;;;;;0.22;0.22;;;20.60;61.50;;;;;;4936312;29;20286;-75
2021/04/11 12:44:18;;;;;;;0.20;0.20;;;20.90;62.10;;;;;;4936444;29;20218;-75
2021/04/11 12:46:59;;;;;;;0.20;0.20;;;21.00;61.60;;;;;;4935952;29;20253;-77
2021/04/11 12:49:39;;;;;;;0.25;0.25;;;21.10;61.50;;;;;;4935960;29;20325;-76
2021/04/11 12:52:12;;;;;;;0.40;0.40;;;21.30;60.40;;;;;;4935933;29;20312;-76
2021/04/11 12:54:43;;;;;;;0.40;0.40;;;21.10;60.60;;;;;;4935346;29;20214;-76
2021/04/11 12:57:20;;;;;;;0.40;0.40;;;21.10;60.30;;;;;;4935603;29;20206;-76
2021/04/11 12:59:57;;;;;;;0.38;0.38;;;21.10;60.70;;;;;;4935744;29;20202;-76
2021/04/11 13:02:30;;;;;;;0.30;0.30;;;21.20;61.30;;;;;;4935651;29;20690;-76
2021/04/11 13:05:04;;;;;;;0.30;0.30;;;21.20;61.20;;;;;;4935806;29;20231;-76
2021/04/11 13:07:39;;;;;;;0.30;0.30;;;21.30;61.30;;;;;;4935626;29;20206;-76
2021/04/11 13:10:15;;;;;;;0.20;0.20;;;21.40;60.00;;;;;;4935456;29;20647;-77
2021/04/11 13:12:51;;;;;;;0.30;0.30;;;21.40;60.20;;;;;;4935452;29;20247;-77
2021/04/11 13:15:25;;;;;;;0.40;0.40;;;21.20;61.00;;;;;;4935445;29;20212;-76
2021/04/11 13:18:03;;;;;;;0.30;0.30;;;21.20;60.60;;;;;;4935466;29;20218;-76
2021/04/11 13:20:35;;;;;;;0.20;0.20;;;21.20;74.90;;;;;;4935859;29;20238;-76
2021/04/11 13:23:08;;;;;;;0.25;0.25;;;21.40;61.00;;;;;;4935103;29;20667;-76
2021/04/11 13:25:42;;;;;;;0.40;0.40;;;21.40;60.00;;;;;;4935044;29;20206;-76
2021/04/11 13:28:18;;;;;;;0.30;0.30;;;21.50;59.40;;;;;;4935398;29;20210;-76
2021/04/11 13:30:55;;;;;;;0.30;0.30;;;21.50;59.40;;;;;;4935350;29;20652;-76
2021/04/11 13:33:25;;;;;;;0.30;0.30;;;21.60;60.70;;;;;;4934884;29;20264;-76
2021/04/11 13:35:56;;;;;;;0.20;0.20;;;;;;;;;;4935426;29;20245;-79
2021/04/11 13:38:29;;;;;;;0.30;0.30;;;21.70;71.10;;;;;;4935746;29;20569;-76
2021/04/11 13:41:14;;;;;;;0.22;0.22;;;21.70;71.60;;;;;;4935482;29;20221;-76
2021/04/11 13:43:49;;;;;;;0.30;0.30;;;21.70;73.50;;;;;;4934853;29;20202;-76
2021/04/11 13:46:30;;;;;;;0.20;0.20;;;21.90;79.00;;;;;;4935028;29;20248;-76
2021/04/11 13:49:00;;;;;;;0.20;0.20;;;21.90;79.00;;;;;;4934890;29;20221;-76
2021/04/11 13:51:36;;;;;;;0.30;0.30;;;21.70;90.60;;;;;;4934731;29;20309;-75
2021/04/11 13:54:28;;;;;;;0.25;0.25;;;21.90;58.60;;;;;;4934710;29;20209;-75
2021/04/11 13:57:19;;;;;;;0.20;0.20;;;22.00;58.80;;;;;;4934785;29;20206;-76
2021/04/11 13:59:53;;;;;;;0.30;0.30;;;21.90;58.90;;;;;;4935139;29;20261;-76
2021/04/11 14:02:29;;;;;;;0.20;0.20;;;21.90;59.00;;;;;;4934732;29;20659;-76
2021/04/11 14:05:04;;;;;;;0.30;0.30;;;21.80;58.70;;;;;;4934547;29;20210;-76
2021/04/11 14:07:34;;;;;;;0.20;0.20;;;21.80;58.80;;;;;;4934387;29;20209;-76
2021/04/11 14:10:12;;;;;;;0.20;0.20;;;21.80;58.10;;;;;;4934718;29;20225;-76
2021/04/11 14:12:45;;;;;;;0.30;0.30;;;21.60;58.30;;;;;;4934466;29;20213;-76
2021/04/11 14:15:17;;;;;;;0.30;0.30;;;21.60;58.10;;;;;;4934121;29;20563;-76
2021/04/11 14:17:52;;;;;;;0.20;0.20;;;21.60;58.20;;;;;;4934621;29;20261;-76
2021/04/11 14:20:28;;;;;;;0.30;0.30;;;21.50;58.30;;;;;;4934704;29;20201;-77
2021/04/11 14:23:00;;;;;;;0.30;0.30;;;21.70;58.30;;;;;;4934861;29;20206;-76
2021/04/11 14:25:35;;;;;;;0.20;0.20;;;;;;;;;;4934427;29;20261;-74
2021/04/11 14:28:10;;;;;;;0.20;0.20;;;21.90;99.60;;;;;;4934847;29;20243;-71
2021/04/11 14:30:46;;;;;;;0.20;0.20;;;22.10;57.80;;;;;;4933982;29;20285;-70
2021/04/11 14:33:18;;;;;;;0.20;0.20;;;22.10;58.00;;;;;;4936856;29;20217;-76
2021/04/11 14:35:59;;;;;;;0.20;0.20;;;22.10;57.30;;;;;;4927657;29;20590;-72
2021/04/11 14:38:32;;;;;;;0.30;0.30;;;22.10;58.00;;;;;;4941351;29;20741;-78
2021/04/11 14:41:06;;;;;;;0.20;0.20;;;22.00;57.40;;;;;;4931954;29;20293;-73
2021/04/11 14:43:40;;;;;;;0.20;0.20;;;21.90;58.20;;;;;;4932468;29;20273;-73
2021/04/11 14:46:16;;;;;;;0.20;0.20;;;21.90;57.40;;;;;;4931418;29;20202;-73
2021/04/11 14:48:45;;;;;;;0.30;0.30;;;22.20;56.70;;;;;;4929696;29;20547;-73
2021/04/11 14:51:26;;;;;;;0.20;0.20;;;22.20;57.70;;;;;;4932034;29;20218;-78
2021/04/11 14:54:09;;;;;;;0.20;0.20;;;22.40;56.10;;;;;;4941217;29;20738;-79
2021/04/11 14:56:49;;;;;;;0.20;0.20;;;22.40;56.00;;;;;;4939311;29;20232;-80
2021/04/11 14:59:22;;;;;;;0.20;0.20;;;22.30;55.80;;;;;;4942035;29;20686;-79
2021/04/11 15:01:54;;;;;;;0.30;0.30;;;22.10;56.10;;;;;;4942180;29;20252;-79
2021/04/11 15:04:25;;;;;;;0.20;0.20;;;21.90;57.10;;;;;;4941202;29;20203;-79
2021/04/11 15:07:07;;;;;;;0.20;0.20;;;21.80;57.30;;;;;;4943654;29;20258;-79
2021/04/11 15:09:45;;;;;;;0.20;0.20;;;21.70;58.00;;;;;;4942759;29;20239;-79
2021/04/11 15:12:22;;;;;;;0.20;0.20;;;21.70;58.30;;;;;;4943838;29;20225;-79
2021/04/11 15:14:58;;;;;;;0.20;0.20;;;21.80;57.70;;;;;;4942477;29;20230;-79
2021/04/11 15:17:35;;;;;;;0.20;0.20;;;22.00;58.00;;;;;;4924586;29;20214;-79
2021/04/11 15:20:12;;;;;;;0.30;0.30;;;22.10;57.50;;;;;;4928112;29;20225;-79
2021/04/11 15:22:52;;;;;;;0.20;0.20;;;22.20;57.40;;;;;;4927058;29;20217;-79
2021/04/11 15:25:22;;;;;;;0.20;0.20;;;22.50;57.30;;;;;;4928759;29;20202;-78
2021/04/11 15:27:59;;;;;;;0.20;0.20;;;22.70;56.80;;;;;;4942991;29;20256;-78
2021/04/11 15:30:30;;;;;;;0.20;0.20;;;22.80;69.40;;;;;;4944953;29;20209;-80
2021/04/11 15:33:04;;;;;;;0.20;0.20;;;22.80;56.20;;;;;;4942823;29;20671;-78
2021/04/11 15:35:43;;;;;;;0.30;0.30;;;23.00;56.20;;;;;;4941785;29;20198;-78
2021/04/11 15:38:16;;;;;;;0.20;0.20;;;23.20;56.20;;;;;;4944128;29;20198;-78
2021/04/11 15:40:54;;;;;;;0.20;0.20;;;23.30;55.90;;;;;;4943523;29;20226;-80
2021/04/11 15:43:28;;;;;;;0.20;0.20;;;23.30;56.30;;;;;;4946121;29;20202;-79
2021/04/11 15:46:01;;;;;;;0.30;0.30;;;23.10;56.50;;;;;;4943144;29;20229;-79
2021/04/11 15:48:38;;;;;;;0.20;0.20;;;23.00;56.90;;;;;;4942324;29;20266;-78
2021/04/11 15:51:10;;;;;;;0.20;0.20;;;22.60;56.90;;;;;;4939772;29;20636;-78
2021/04/11 15:54:01;;;;;;;0.20;0.20;;;22.30;57.80;;;;;;4942283;29;20202;-78
2021/04/11 15:56:33;;;;;;;0.20;0.20;;;22.00;58.20;;;;;;4941566;29;20210;-78
2021/04/11 15:59:11;;;;;;;0.30;0.30;;;21.90;58.70;;;;;;4940524;29;20496;-78
2021/04/11 16:01:45;;;;;;;0.20;0.20;;;21.70;58.60;;;;;;4941054;29;20226;-78
2021/04/11 16:04:21;;;;;;;0.30;0.30;;;21.70;58.60;;;;;;4937703;29;20210;-77
2021/04/11 16:06:59;;;;;;;0.30;0.30;;;21.80;58.10;;;;;;4938966;29;20835;-80
2021/04/11 16:09:30;;;;;;;0.30;0.30;;;22.10;57.60;;;;;;4938342;29;20205;-80
2021/04/11 16:12:32;;;;;;;0.30;0.30;;;22.40;57.40;;;;;;4942439;29;20229;-78
2021/04/11 16:15:05;;;;;;;0.30;0.30;;;22.70;56.80;;;;;;4940351;29;20281;-79
2021/04/11 16:17:47;;;;;;;0.20;0.20;;;23.00;55.90;;;;;;4941014;29;20221;-78
2021/04/11 16:20:17;;;;;;;0.20;0.20;;;23.20;73.60;;;;;;4940442;29;20296;-80
2021/04/11 16:22:54;;;;;;;0.20;0.20;;;23.10;55.80;;;;;;4941509;29;20210;-80
2021/04/11 16:25:28;;;;;;;0.22;0.22;;;23.40;55.20;;;;;;4941736;29;20209;-81
2021/04/11 16:28:24;;;;;;;0.20;0.20;;;23.60;54.90;;;;;;4941047;29;20253;-80
2021/04/11 16:31:14;;;;;;;0.20;0.20;;;23.50;54.90;;;;;;4939934;29;20221;-81
2021/04/11 16:33:49;;;;;;;0.20;0.20;;;23.60;54.90;;;;;;4922829;29;20253;-80
2021/04/11 16:36:26;;;;;;;0.20;0.20;;;23.60;54.10;;;;;;4941016;29;20624;-80
2021/04/11 16:39:10;;;;;;;0.20;0.20;;;23.70;54.50;;;;;;4940544;29;20276;-80
2021/04/11 16:41:50;;;;;;;0.20;0.20;;;23.60;54.30;;;;;;4940638;29;20220;-80
2021/04/11 16:44:24;;;;;;;0.20;0.20;;;23.40;55.00;;;;;;4941149;29;20217;-80
2021/04/11 16:46:58;;;;;;;0.20;0.20;;;23.10;55.00;;;;;;4941590;29;20432;-79
2021/04/11 16:49:34;;;;;;;0.20;0.20;;;22.40;55.50;;;;;;4945731;29;20190;-78
2021/04/11 16:52:07;;;;;;;0.20;0.20;;;21.80;56.50;;;;;;4944454;29;20213;-80
2021/04/11 16:54:40;;;;;;;0.30;0.30;;;21.30;58.00;;;;;;4925097;29;20214;-79
2021/04/11 16:57:16;;;;;;;0.35;0.35;;;21.20;58.70;;;;;;4942418;29;20225;-80
2021/04/11 16:59:53;;;;;;;0.20;0.20;;;20.80;59.30;;;;;;4940659;29;20645;-80
2021/04/11 17:02:23;;;;;;;0.20;0.20;;;;;;;;;;4941519;29;20703;-79
2021/04/11 17:04:57;;;;;;;0.30;0.30;;;20.30;60.50;;;;;;4941464;29;20294;-78
2021/04/11 17:07:27;;;;;;;0.40;0.40;;;20.00;62.00;;;;;;4941407;29;20206;-79
2021/04/11 17:09:59;;;;;;;0.25;0.25;;;19.80;62.30;;;;;;4941742;29;20202;-78
2021/04/11 17:12:33;;;;;;;0.30;0.30;;;19.60;63.20;;;;;;4940859;29;20234;-79
2021/04/11 17:15:05;;;;;;;0.22;0.22;;;19.30;64.00;;;;;;4940833;29;20233;-77
2021/04/11 17:17:38;;;;;;;0.30;0.30;;;19.00;64.90;;;;;;4939049;29;20205;-77
2021/04/11 17:20:15;;;;;;;0.30;0.30;;;18.90;66.00;;;;;;4943153;29;20225;-79
2021/04/11 17:22:55;;;;;;;0.40;0.40;;;18.80;66.10;;;;;;4948315;29;20216;-78
2021/04/11 17:25:30;;;;;;;0.30;0.30;;;18.50;66.80;;;;;;4946669;29;20197;-79
2021/04/11 17:28:05;;;;;;;0.30;0.30;;;18.30;67.00;;;;;;4946477;29;20225;-78
2021/04/11 17:30:36;;;;;;;0.30;0.30;;;18.20;67.30;;;;;;4942009;29;20710;-79
2021/04/11 17:33:23;;;;;;;0.40;0.40;;;18.10;67.50;;;;;;4940971;29;20213;-79
2021/04/11 17:36:01;;;;;;;0.30;0.30;;;18.00;67.50;;;;;;4939793;29;20213;-79
2021/04/11 17:38:38;;;;;;;0.50;0.50;;;18.00;68.00;;;;;;4941142;29;20194;-78
2021/04/11 17:41:19;;;;;;;0.30;0.30;;;17.80;68.50;;;;;;4941773;29;20229;-80
2021/04/11 17:43:56;;;;;;;0.30;0.30;;;17.70;68.50;;;;;;4941555;29;20209;-80
2021/04/11 17:46:33;;;;;;;0.30;0.30;;;17.70;68.40;;;;;;4945720;29;20237;-79
2021/04/11 17:49:09;;;;;;;0.30;0.30;;;17.70;69.10;;;;;;4944909;29;20206;-80
2021/04/11 17:51:45;;;;;;;0.40;0.40;;;17.60;69.10;;;;;;4944555;29;20233;-81
2021/04/11 17:54:37;;;;;;;0.40;0.40;;;17.60;68.70;;;;;;4943337;29;20667;-81
2021/04/11 17:57:14;;;;;;;0.30;0.30;;;17.60;68.50;;;;;;4933506;29;20222;-79
2021/04/11 18:00:06;;;;;;;0.40;0.40;;;17.60;68.10;;;;;;4944556;29;20773;-79
2021/04/11 18:02:39;;;;;;;0.30;0.30;;;17.60;68.10;;;;;;4951524;28;20225;-79